Time;durP1;ratioP1;P1;durP2;ratioP2;P2;SDS_P1;SDS_P2;PMS_P1;PMS_P2;Temp;Humidity;BMP_temperature;BMP_pressure;BME280_temperature;BME280_humidity;BME280_pressure;Samples;Min_cycle;Max_cycle;Signal;HPM_P1;HPM_P2
2022/12/10 00:01:55;;;;;;;24.73;16.60;;;;;;;2.60;76.70;98318.28;6065556;23;20186;-84
2022/12/10 00:04:21;;;;;;;25.93;19.20;;;;;;;2.62;76.79;98314.69;6065190;23;20166;-82
2022/12/10 00:06:47;;;;;;;24.67;16.27;;;;;;;2.64;76.61;98310.25;6040029;23;20183;-83
2022/12/10 00:09:15;;;;;;;20.77;16.50;;;;;;;2.62;76.27;98309.50;6066628;23;20399;-83
2022/12/10 00:11:41;;;;;;;29.50;16.92;;;;;;;2.59;76.37;98312.25;6062779;23;20867;-82
2022/12/10 00:14:07;;;;;;;30.30;17.83;;;;;;;2.54;76.35;98315.97;6063269;23;20162;-84
2022/12/10 00:16:33;;;;;;;27.60;18.63;;;;;;;2.47;76.30;98315.47;6064153;23;20390;-81
2022/12/10 00:18:59;;;;;;;27.13;18.85;;;;;;;2.45;77.07;98312.13;6063789;23;20178;-82
2022/12/10 00:21:27;;;;;;;25.35;17.10;;;;;;;2.44;76.85;98319.06;6073559;23;20209;-82
2022/12/10 00:23:54;;;;;;;27.85;18.33;;;;;;;2.48;76.97;98321.50;6104404;23;20169;-83
2022/12/10 00:26:28;;;;;;;22.60;16.95;;;;;;;2.53;76.95;98319.50;6114656;23;20224;-83
2022/12/10 00:28:55;;;;;;;31.70;18.10;;;;;;;2.56;76.76;98329.72;6118019;23;20196;-83
2022/12/10 00:31:30;;;;;;;25.80;17.42;;;;;;;2.56;76.83;98333.13;6110104;23;20403;-83
2022/12/10 00:33:57;;;;;;;28.65;17.58;;;;;;;2.56;76.73;98327.13;6089327;23;20166;-83
2022/12/10 00:36:38;;;;;;;27.35;18.25;;;;;;;2.57;76.79;98319.28;6090057;23;20241;-83
2022/12/10 00:39:04;;;;;;;26.10;17.27;;;;;;;2.57;76.88;98321.88;6090481;23;20243;-82
2022/12/10 00:41:30;;;;;;;22.15;15.48;;;;;;;2.53;76.50;98317.75;6090346;23;20198;-83
2022/12/10 00:43:56;;;;;;;25.45;17.60;;;;;;;2.47;76.84;98312.88;6086912;23;20166;-80
2022/12/10 00:46:21;;;;;;;27.50;17.17;;;;;;;2.44;76.90;98315.63;6086104;23;20167;-82
2022/12/10 00:48:46;;;;;;;23.70;17.70;;;;;;;2.41;76.89;98306.25;6090064;23;20417;-82
2022/12/10 00:51:18;;;;;;;25.07;17.43;;;;;;;2.40;76.70;98316.69;6088091;23;20202;-83
2022/12/10 00:53:45;;;;;;;27.00;15.27;;;;;;;2.38;77.11;98309.03;6090677;23;20245;-83
2022/12/10 00:56:12;;;;;;;21.10;16.83;;;;;;;2.36;77.00;98313.44;6066524;23;20173;-83
2022/12/10 00:58:39;;;;;;;23.25;17.20;;;;;;;2.38;77.27;98331.50;6091972;23;20159;-83
2022/12/10 01:01:14;;;;;;;27.80;17.55;;;;;;;2.39;77.52;98343.53;6089917;23;20225;-82
2022/12/10 01:03:41;;;;;;;23.00;15.80;;;;;;;2.41;77.23;98352.91;6091644;23;20191;-83
2022/12/10 01:06:22;;;;;;;28.60;18.30;;;;;;;2.42;77.19;98348.56;6086445;23;20173;-82
2022/12/10 01:08:49;;;;;;;30.13;17.63;;;;;;;2.42;77.30;98349.41;6092383;23;20184;-82
2022/12/10 01:11:17;;;;;;;31.17;18.55;;;;;;;2.43;77.33;98360.59;6091788;23;20195;-83
2022/12/10 01:13:44;;;;;;;22.92;14.88;;;;;;;2.45;77.21;98358.78;6089926;23;20180;-82
2022/12/10 01:16:13;;;;;;;26.40;16.98;;;;;;;2.44;77.12;98357.09;6089852;23;20197;-83
2022/12/10 01:18:39;;;;;;;25.65;18.33;;;;;;;2.44;77.19;98363.13;6088112;23;20173;-83
2022/12/10 01:21:08;;;;;;;28.95;18.90;;;;;;;2.45;76.96;98353.59;6091204;23;20186;-82
2022/12/10 01:23:38;;;;;;;30.85;19.40;;;;;;;2.48;77.23;98357.78;6088817;23;20636;-82
2022/12/10 01:26:07;;;;;;;30.52;21.17;;;;;;;2.45;77.25;98351.00;6088885;23;20530;-83
2022/12/10 01:28:35;;;;;;;28.80;19.58;;;;;;;2.44;77.12;98331.19;6089578;23;20214;-82
2022/12/10 01:31:03;;;;;;;27.15;17.48;;;;;;;2.43;77.10;98324.31;6088229;23;20196;-83
2022/12/10 01:33:29;;;;;;;30.60;20.13;;;;;;;2.41;77.21;98320.97;6090156;23;20236;-83
2022/12/10 01:35:54;;;;;;;29.35;17.75;;;;;;;2.39;77.05;98328.81;6092040;23;20149;-83
2022/12/10 01:38:20;;;;;;;27.97;18.93;;;;;;;2.38;77.22;98337.53;6089629;23;20181;-83
2022/12/10 01:40:45;;;;;;;29.70;18.50;;;;;;;2.36;77.21;98335.94;6089906;23;20904;-83
2022/12/10 01:43:15;;;;;;;29.00;19.50;;;;;;;2.33;77.49;98341.25;6092390;23;20253;-83
2022/12/10 01:45:40;;;;;;;27.08;17.88;;;;;;;2.28;77.46;98349.25;6090924;23;20178;-83
2022/12/10 01:48:06;;;;;;;30.23;19.10;;;;;;;2.27;77.60;98360.56;6090260;23;20265;-83
2022/12/10 01:50:32;;;;;;;35.10;19.08;;;;;;;2.30;77.86;98362.97;6092160;23;20197;-83
2022/12/10 01:52:57;;;;;;;32.40;20.17;;;;;;;2.35;77.70;98354.97;6089578;23;20186;-83
2022/12/10 01:55:44;;;;;;;32.90;17.77;;;;;;;2.41;77.73;98357.25;6086903;23;20182;-83
2022/12/10 01:58:13;;;;;;;35.38;20.10;;;;;;;2.44;77.83;98352.75;6089071;23;20170;-83
2022/12/10 02:00:51;;;;;;;34.67;19.30;;;;;;;2.49;77.62;98354.28;6091544;23;20735;-83
2022/12/10 02:03:29;;;;;;;33.88;19.92;;;;;;;2.52;77.38;98362.72;6093201;23;20166;-83
2022/12/10 02:06:06;;;;;;;26.77;18.98;;;;;;;2.54;77.33;98357.47;6091080;23;20811;-83
2022/12/10 02:08:51;;;;;;;29.33;18.77;;;;;;;2.55;77.31;98361.75;6089027;23;20699;-83
2022/12/10 02:11:24;;;;;;;24.95;15.85;;;;;;;2.57;77.08;98365.09;6092453;23;20213;-83
2022/12/10 02:14:00;;;;;;;29.70;18.02;;;;;;;2.56;77.13;98358.22;6087447;23;20245;-83
2022/12/10 02:16:41;;;;;;;29.70;18.88;;;;;;;2.50;77.35;98366.31;6089775;23;20175;-84
2022/12/10 02:19:45;;;;;;;33.25;17.52;;;;;;;2.43;77.19;98366.63;6089169;23;20169;-84
2022/12/10 02:22:13;;;;;;;24.10;17.42;;;;;;;2.39;77.37;98369.44;6089793;23;20211;-83
2022/12/10 02:24:40;;;;;;;27.77;17.77;;;;;;;2.39;77.14;98380.66;6091273;23;20168;-83
2022/12/10 02:27:27;;;;;;;38.05;19.52;;;;;;;2.38;77.60;98370.38;6085536;23;20256;-84
2022/12/10 02:29:55;;;;;;;30.80;18.15;;;;;;;2.39;77.67;98372.03;6087561;23;20752;-83
2022/12/10 02:32:25;;;;;;;35.47;24.02;;;;;;;2.39;77.61;98367.69;6088995;23;20475;-83
2022/12/10 02:34:55;;;;;;;38.63;26.10;;;;;;;2.38;78.09;98363.44;6087537;23;20438;-83
2022/12/10 02:37:27;;;;;;;31.27;21.58;;;;;;;2.36;78.12;98364.44;6089038;23;20598;-83
2022/12/10 02:39:59;;;;;;;30.95;20.85;;;;;;;2.34;78.18;98368.84;6089122;23;20170;-83
2022/12/10 02:42:29;;;;;;;29.67;18.73;;;;;;;2.31;78.10;98367.25;6089553;23;20647;-83
2022/12/10 02:44:56;;;;;;;26.80;19.15;;;;;;;2.28;78.19;98366.56;6088158;23;20212;-83
2022/12/10 02:47:23;;;;;;;27.33;18.85;;;;;;;2.23;77.98;98364.19;6087603;23;20176;-83
2022/12/10 02:49:53;;;;;;;32.08;17.75;;;;;;;2.24;77.95;98367.63;6087251;23;20176;-83
2022/12/10 02:52:20;;;;;;;34.03;19.08;;;;;;;2.22;78.36;98365.13;6087035;23;20219;-83
2022/12/10 02:54:49;;;;;;;33.70;18.83;;;;;;;2.26;78.35;98371.81;6085068;23;20523;-83
2022/12/10 02:57:45;;;;;;;29.67;17.23;;;;;;;2.33;78.26;98380.13;6091180;23;20219;-83
2022/12/10 03:00:21;;;;;;;29.80;19.70;;;;;;;2.38;77.99;98367.78;6089405;23;20184;-83
2022/12/10 03:03:23;;;;;;;24.90;15.73;;;;;;;2.44;77.99;98368.31;6090037;23;20374;-84
2022/12/10 03:06:18;;;;;;;33.28;17.23;;;;;;;2.47;78.02;98356.09;6090531;23;20207;-83
2022/12/10 03:09:06;;;;;;;27.77;17.88;;;;;;;2.50;78.03;98351.59;6089186;23;20184;-83
2022/12/10 03:11:32;;;;;;;24.45;16.02;;;;;;;2.53;77.67;98363.56;6083522;23;20310;-83
2022/12/10 03:14:21;;;;;;;29.23;17.93;;;;;;;2.56;77.53;98363.41;6088875;23;20687;-83
2022/12/10 03:16:56;;;;;;;31.00;15.95;;;;;;;2.55;77.30;98359.97;6087983;23;20187;-83
2022/12/10 03:19:27;;;;;;;23.77;17.50;;;;;;;2.49;77.44;98354.28;6088603;23;20183;-83
2022/12/10 03:21:53;;;;;;;25.00;16.20;;;;;;;2.46;77.57;98357.00;6087604;23;20306;-83
2022/12/10 03:24:26;;;;;;;21.23;16.33;;;;;;;2.44;77.73;98355.34;6090979;23;20239;-83
2022/12/10 03:26:52;;;;;;;24.65;16.02;;;;;;;2.43;77.50;98356.28;6094298;23;20205;-83
2022/12/10 03:29:23;;;;;;;27.87;18.33;;;;;;;2.43;77.61;98356.28;6090854;23;20177;-83
2022/12/10 03:31:52;;;;;;;26.10;17.23;;;;;;;2.43;77.70;98360.59;6089875;23;20290;-83
2022/12/10 03:34:18;;;;;;;32.58;22.58;;;;;;;2.44;77.99;98355.34;6087574;23;21158;-84
2022/12/10 03:36:44;;;;;;;32.57;18.90;;;;;;;2.50;78.18;98355.94;6090070;23;20420;-83
2022/12/10 03:39:11;;;;;;;24.35;17.10;;;;;;;2.53;78.32;98353.19;6088082;23;20960;-82
2022/12/10 03:41:36;;;;;;;22.45;16.50;;;;;;;2.56;77.91;98353.03;6090069;23;20196;-83
2022/12/10 03:44:01;;;;;;;21.97;15.50;;;;;;;2.56;77.67;98359.06;6091214;23;20232;-83
2022/12/10 03:46:29;;;;;;;34.40;18.93;;;;;;;2.57;78.14;98357.31;6089099;23;20624;-83
2022/12/10 03:48:56;;;;;;;23.50;17.98;;;;;;;2.57;77.51;98352.16;6093678;23;20183;-83
2022/12/10 03:51:21;;;;;;;33.90;18.17;;;;;;;2.57;77.68;98352.16;6095677;23;20201;-83
2022/12/10 03:53:50;;;;;;;26.37;17.90;;;;;;;2.55;77.34;98351.38;6093293;23;20186;-83
2022/12/10 03:56:19;;;;;;;21.88;14.60;;;;;;;2.51;77.27;98347.25;6094579;23;20190;-82
2022/12/10 03:58:45;;;;;;;22.60;16.90;;;;;;;2.47;77.77;98356.09;6094013;23;20554;-83
2022/12/10 04:01:12;;;;;;;30.05;16.23;;;;;;;2.43;77.65;98358.88;6094122;23;20198;-83
2022/12/10 04:03:40;;;;;;;25.50;17.25;;;;;;;2.41;77.71;98354.66;6091951;23;20262;-83
2022/12/10 04:06:09;;;;;;;24.48;15.30;;;;;;;2.38;77.82;98354.84;6097706;23;20427;-83
2022/12/10 04:08:35;;;;;;;38.45;16.98;;;;;;;2.35;77.76;98349.78;6101209;23;20184;-82
2022/12/10 04:11:09;;;;;;;23.50;15.50;;;;;;;2.34;77.86;98348.13;6102236;23;20264;-83
2022/12/10 04:16:28;;;;;;;35.95;21.92;;;;;;;2.41;78.02;98362.44;6101817;23;20190;-82
2022/12/10 04:19:05;;;;;;;33.38;19.95;;;;;;;2.51;77.93;98360.22;6100749;23;20610;-83
2022/12/10 04:27:09;;;;;;;25.02;14.70;;;;;;;2.76;77.24;98349.44;6100125;23;20204;-83
2022/12/10 04:29:34;;;;;;;26.13;16.35;;;;;;;2.75;77.37;98345.97;6095663;23;20172;-83
2022/12/10 04:32:00;;;;;;;29.93;19.00;;;;;;;2.75;77.23;98345.97;6092729;23;20488;-83
2022/12/10 04:34:26;;;;;;;29.27;20.13;;;;;;;2.67;77.39;98348.13;6090475;23;20211;-83
2022/12/10 04:36:52;;;;;;;29.67;17.37;;;;;;;2.69;77.80;98350.66;6093391;23;20706;-83
2022/12/10 04:39:17;;;;;;;30.57;17.97;;;;;;;2.71;77.94;98349.66;6093858;23;20270;-83
2022/12/10 04:41:45;;;;;;;28.08;17.48;;;;;;;2.73;77.57;98358.22;6092788;23;20416;-83
2022/12/10 04:44:11;;;;;;;24.73;15.30;;;;;;;2.76;77.76;98357.22;6089281;23;20173;-83
2022/12/10 04:46:37;;;;;;;22.83;16.90;;;;;;;2.77;77.77;98354.53;6092301;23;20239;-83
2022/12/10 04:49:04;;;;;;;20.05;14.93;;;;;;;2.80;77.65;98350.94;6094658;23;20235;-82
2022/12/10 04:51:30;;;;;;;28.65;15.15;;;;;;;2.79;77.41;98346.69;6092399;23;20243;-82
2022/12/10 04:53:56;;;;;;;25.58;16.00;;;;;;;2.79;77.42;98352.69;6093777;23;20186;-82
2022/12/10 04:56:21;;;;;;;20.07;14.70;;;;;;;2.77;77.24;98354.53;6093237;23;20188;-83
2022/12/10 04:58:47;;;;;;;29.30;17.03;;;;;;;2.77;77.61;98354.53;6087010;23;20205;-83
2022/12/10 05:01:13;;;;;;;23.35;15.80;;;;;;;2.81;77.16;98352.63;6087624;23;20225;-83
2022/12/10 05:03:39;;;;;;;23.00;15.13;;;;;;;2.81;77.61;98356.06;6086855;23;20499;-83
2022/12/10 05:06:08;;;;;;;31.17;21.73;;;;;;;2.85;77.42;98354.97;6083090;23;20512;-83
2022/12/10 05:08:34;;;;;;;27.30;18.33;;;;;;;2.92;77.74;98360.69;6088631;23;20176;-83
2022/12/10 05:11:05;;;;;;;25.98;16.52;;;;;;;3.00;77.80;98360.28;6092622;23;20216;-83
2022/12/10 05:13:31;;;;;;;25.70;16.13;;;;;;;3.06;77.43;98365.13;6092066;23;20180;-84
2022/12/10 05:15:56;;;;;;;29.87;18.20;;;;;;;3.09;77.47;98375.34;6093371;23;20229;-83
2022/12/10 05:18:22;;;;;;;19.80;13.17;;;;;;;3.09;77.13;98375.34;6093871;23;20255;-83
2022/12/10 05:20:47;;;;;;;21.67;15.50;;;;;;;3.04;76.81;98373.00;6095033;23;20173;-83
2022/12/10 05:23:28;;;;;;;20.50;15.57;;;;;;;3.02;76.94;98368.81;6093045;23;20491;-83
2022/12/10 05:26:10;;;;;;;24.10;15.13;;;;;;;2.99;76.82;98363.78;6095799;23;20665;-83
2022/12/10 05:28:38;;;;;;;27.83;14.70;;;;;;;2.93;77.16;98369.28;6094349;23;20196;-83
2022/12/10 05:31:04;;;;;;;30.77;16.38;;;;;;;2.86;76.92;98364.44;6095414;23;20209;-83
2022/12/10 05:33:31;;;;;;;22.23;15.57;;;;;;;2.83;77.00;98371.53;6095100;23;20257;-84
2022/12/10 05:36:00;;;;;;;29.13;17.20;;;;;;;2.81;77.25;98373.38;6096666;23;20232;-83
2022/12/10 05:38:27;;;;;;;26.10;16.40;;;;;;;2.81;77.40;98379.41;6095462;23;20180;-82
2022/12/10 05:40:52;;;;;;;29.17;16.08;;;;;;;2.84;77.25;98381.81;6096861;23;20575;-83
2022/12/10 05:43:18;;;;;;;26.37;14.93;;;;;;;2.87;76.82;98381.66;6097499;23;20167;-83
2022/12/10 05:45:44;;;;;;;23.30;15.67;;;;;;;2.86;77.13;98394.69;6095670;23;20411;-83
2022/12/10 05:48:12;;;;;;;22.93;16.60;;;;;;;2.81;76.94;98400.16;6098175;23;20276;-83
2022/12/10 05:50:38;;;;;;;28.10;17.77;;;;;;;2.79;77.14;98401.13;6098071;23;20207;-83
2022/12/10 05:53:04;;;;;;;31.23;17.33;;;;;;;2.78;77.21;98387.34;6099646;23;20196;-83
2022/12/10 05:55:31;;;;;;;27.87;16.47;;;;;;;2.81;77.00;98402.75;6097807;23;20411;-83
2022/12/10 05:57:57;;;;;;;20.80;15.00;;;;;;;2.80;76.59;98406.22;6096212;23;20186;-83
2022/12/10 06:00:23;;;;;;;27.53;17.37;;;;;;;2.76;76.63;98404.72;6094314;23;20176;-83
2022/12/10 06:02:50;;;;;;;24.30;16.55;;;;;;;2.70;76.76;98404.19;6093980;23;20420;-83
2022/12/10 06:05:15;;;;;;;24.85;15.43;;;;;;;2.60;76.72;98412.44;6092252;23;20259;-84
2022/12/10 06:07:41;;;;;;;29.80;14.47;;;;;;;2.52;77.02;98418.94;6092704;23;20259;-84
2022/12/10 06:10:07;;;;;;;29.83;17.07;;;;;;;2.43;76.78;98420.19;6090402;23;20192;-84
2022/12/10 06:12:32;;;;;;;25.80;16.10;;;;;;;2.39;77.46;98423.88;6090210;23;20972;-83
2022/12/10 06:14:58;;;;;;;34.57;21.43;;;;;;;2.36;77.58;98424.84;6087958;23;20179;-84
2022/12/10 06:17:23;;;;;;;29.43;15.77;;;;;;;2.39;77.29;98429.88;6088708;23;20416;-84
2022/12/10 06:19:48;;;;;;;38.83;16.90;;;;;;;2.38;77.37;98425.63;6087800;23;20183;-84
2022/12/10 06:22:14;;;;;;;33.83;18.73;;;;;;;2.36;77.16;98419.69;6096894;23;20219;-82
2022/12/10 06:24:39;;;;;;;30.13;16.57;;;;;;;2.33;77.60;98434.53;6110279;23;20570;-84
2022/12/10 06:27:05;;;;;;;26.80;17.40;;;;;;;2.31;77.60;98433.78;6121663;23;20262;-85
2022/12/10 06:29:30;;;;;;;38.93;22.47;;;;;;;2.34;77.59;98436.22;6122135;23;20191;-86
2022/12/10 06:31:56;;;;;;;44.13;22.90;;;;;;;2.41;77.66;98437.59;6111342;23;20200;-84
2022/12/10 06:34:21;;;;;;;34.43;21.03;;;;;;;2.48;77.58;98440.72;6093645;23;20183;-83
2022/12/10 06:36:47;;;;;;;31.90;17.30;;;;;;;2.52;77.35;98442.25;6095058;23;20184;-83
2022/12/10 06:39:12;;;;;;;29.13;19.50;;;;;;;2.51;77.55;98443.16;6094570;23;20187;-83
2022/12/10 06:41:38;;;;;;;29.70;20.17;;;;;;;2.51;77.26;98449.19;6093000;23;20218;-83
2022/12/10 06:44:07;;;;;;;27.10;15.80;;;;;;;2.53;77.29;98451.69;6092416;23;20206;-85
2022/12/10 06:46:33;;;;;;;26.77;15.93;;;;;;;2.52;77.29;98444.84;6095115;23;20235;-86
2022/12/10 06:48:58;;;;;;;28.97;17.10;;;;;;;2.49;77.17;98451.03;6094289;23;20570;-86
2022/12/10 06:51:24;;;;;;;26.87;15.93;;;;;;;2.45;77.46;98454.66;6093728;23;20631;-85
2022/12/10 06:53:49;;;;;;;33.40;15.80;;;;;;;2.44;77.49;98456.41;6093534;23;20184;-84
2022/12/10 06:56:17;;;;;;;30.20;18.00;;;;;;;2.42;77.41;98460.84;6093622;23;20188;-83
2022/12/10 06:58:43;;;;;;;33.63;20.08;;;;;;;2.41;77.77;98466.94;6094054;23;20184;-85
2022/12/10 07:01:12;;;;;;;32.20;17.38;;;;;;;2.40;77.58;98465.28;6095024;23;20176;-85
2022/12/10 07:03:38;;;;;;;28.35;16.55;;;;;;;2.41;77.92;98463.50;6092771;23;20652;-87
2022/12/10 07:06:05;;;;;;;31.33;19.27;;;;;;;2.40;77.75;98472.19;6094189;23;20187;-86
2022/12/10 07:08:30;;;;;;;43.67;19.63;;;;;;;2.36;77.65;98468.91;6093517;23;20191;-83
2022/12/10 07:10:56;;;;;;;30.77;19.10;;;;;;;2.34;77.68;98469.91;6092448;23;20199;-82
2022/12/10 07:13:22;;;;;;;30.17;16.63;;;;;;;2.31;77.88;98473.47;6093623;23;20497;-84
2022/12/10 07:15:48;;;;;;;35.90;20.05;;;;;;;2.30;77.81;98478.75;6092466;23;20241;-84
2022/12/10 07:18:13;;;;;;;33.43;17.80;;;;;;;2.30;77.81;98483.94;6094119;23;20641;-82
2022/12/10 07:20:38;;;;;;;43.93;19.67;;;;;;;2.31;77.73;98483.84;6095115;23;20168;-84
2022/12/10 07:23:06;;;;;;;32.97;18.02;;;;;;;2.29;78.12;98487.41;6094025;23;20219;-88
2022/12/10 07:25:32;;;;;;;31.30;18.67;;;;;;;2.29;77.97;98488.25;6093628;23;20191;-81
2022/12/10 07:27:58;;;;;;;33.45;20.02;;;;;;;2.29;77.95;98498.63;6093705;23;20405;-82
2022/12/10 07:30:23;;;;;;;42.90;20.53;;;;;;;2.34;77.96;98496.66;6093070;23;20583;-84
2022/12/10 07:32:49;;;;;;;39.80;19.57;;;;;;;2.40;78.02;98506.75;6093154;23;20601;-82
2022/12/10 07:35:14;;;;;;;33.17;16.53;;;;;;;2.47;77.80;98506.44;6095008;23;20176;-82
2022/12/10 07:37:39;;;;;;;38.40;19.30;;;;;;;2.50;77.49;98506.28;6094195;23;20443;-84
2022/12/10 07:40:05;;;;;;;41.70;19.73;;;;;;;2.52;77.73;98514.84;6098994;23;20246;-85
2022/12/10 07:42:31;;;;;;;29.97;15.43;;;;;;;2.54;77.68;98510.38;6098669;23;20199;-81
2022/12/10 07:44:56;;;;;;;40.17;18.90;;;;;;;2.55;77.56;98510.31;6096484;23;20438;-85
2022/12/10 07:47:22;;;;;;;32.47;18.15;;;;;;;2.56;77.60;98521.53;6092755;23;20669;-86
2022/12/10 07:49:48;;;;;;;35.70;19.10;;;;;;;2.57;77.85;98518.03;6094635;23;20418;-85
2022/12/10 07:52:14;;;;;;;33.87;20.90;;;;;;;2.55;77.74;98520.69;6095109;23;20488;-85
2022/12/10 07:54:39;;;;;;;33.63;18.47;;;;;;;2.53;77.58;98530.28;6091142;23;20191;-84
2022/12/10 07:57:04;;;;;;;33.50;18.27;;;;;;;2.50;77.77;98529.59;6095830;23;20168;-85
2022/12/10 07:59:30;;;;;;;40.17;18.37;;;;;;;2.49;77.75;98526.19;6094515;23;20649;-83
2022/12/10 08:01:56;;;;;;;37.30;19.13;;;;;;;2.49;77.76;98533.13;6095878;23;20191;-86
2022/12/10 08:04:21;;;;;;;39.33;17.67;;;;;;;2.49;77.75;98530.53;6097054;23;20435;-85
2022/12/10 08:06:47;;;;;;;39.27;18.83;;;;;;;2.47;77.73;98543.56;6095868;23;20185;-85
2022/12/10 08:09:13;;;;;;;34.80;18.70;;;;;;;2.46;77.94;98536.69;6097580;23;20203;-87
2022/12/10 08:11:38;;;;;;;40.43;17.70;;;;;;;2.48;77.94;98544.38;6096626;23;20512;-86
2022/12/10 08:14:04;;;;;;;38.20;21.13;;;;;;;2.50;77.83;98542.56;6089112;23;20279;-84
2022/12/10 08:16:30;;;;;;;36.07;18.57;;;;;;;2.53;77.80;98547.59;6094746;23;20754;-84
2022/12/10 08:18:57;;;;;;;45.08;21.23;;;;;;;2.57;77.93;98549.16;6097233;23;20638;-85
2022/12/10 08:21:26;;;;;;;39.03;19.52;;;;;;;2.60;77.93;98554.19;6096206;23;20200;-84
2022/12/10 08:23:52;;;;;;;39.22;17.75;;;;;;;2.60;77.60;98549.84;6096395;23;20251;-84
2022/12/10 08:26:20;;;;;;;43.28;20.20;;;;;;;2.62;77.87;98557.56;6093741;23;20185;-88
2022/12/10 08:28:47;;;;;;;34.28;16.15;;;;;;;2.61;77.74;98555.84;6095058;23;20383;-84
2022/12/10 08:31:18;;;;;;;40.13;19.80;;;;;;;2.63;77.76;98557.47;6092695;23;20283;-85
2022/12/10 08:33:43;;;;;;;33.03;19.13;;;;;;;2.65;77.49;98552.22;6091866;23;20200;-85
2022/12/10 08:36:12;;;;;;;37.13;17.70;;;;;;;2.68;77.78;98557.25;6094478;23;20187;-87
2022/12/10 08:38:38;;;;;;;34.97;17.75;;;;;;;2.69;77.59;98556.31;6094121;23;20263;-83
2022/12/10 08:41:11;;;;;;;34.80;19.47;;;;;;;2.71;77.52;98557.09;6090868;23;20622;-84
2022/12/10 08:43:37;;;;;;;35.28;18.60;;;;;;;2.73;77.57;98559.59;6092268;23;20698;-86
2022/12/10 08:46:03;;;;;;;31.60;17.27;;;;;;;2.76;77.35;98567.25;6093485;23;20176;-85
2022/12/10 08:48:29;;;;;;;30.67;16.47;;;;;;;2.72;77.54;98568.28;6092593;23;20517;-83
2022/12/10 08:50:54;;;;;;;42.42;17.75;;;;;;;2.71;77.65;98564.03;6094239;23;20713;-86
2022/12/10 08:53:21;;;;;;;31.38;17.23;;;;;;;2.70;77.29;98570.97;6090493;23;20288;-82
2022/12/10 08:55:50;;;;;;;29.07;17.80;;;;;;;2.68;77.61;98577.97;6092223;23;20184;-85
2022/12/10 08:58:16;;;;;;;32.15;19.27;;;;;;;2.66;77.57;98572.88;6092591;23;20508;-85
2022/12/10 09:00:41;;;;;;;35.23;18.20;;;;;;;2.66;77.73;98577.22;6092183;23;20190;-86
2022/12/10 09:03:08;;;;;;;42.60;21.30;;;;;;;2.63;77.72;98587.72;6095202;23;20259;-86
2022/12/10 09:05:35;;;;;;;31.98;18.10;;;;;;;2.63;77.75;98587.72;6094779;23;20643;-83
2022/12/10 09:08:00;;;;;;;36.80;17.65;;;;;;;2.62;77.60;98588.66;6094187;23;20207;-87
2022/12/10 09:10:25;;;;;;;37.83;21.87;;;;;;;2.63;77.77;98592.91;6095742;23;20211;-83
2022/12/10 09:12:51;;;;;;;41.73;22.67;;;;;;;2.63;77.56;98598.94;6095483;23;20632;-85
2022/12/10 09:15:16;;;;;;;45.00;19.90;;;;;;;2.63;77.48;98600.69;6091645;23;20191;-84
2022/12/10 09:17:42;;;;;;;38.37;17.73;;;;;;;2.61;77.20;98607.69;6094379;23;20568;-82
2022/12/10 09:20:07;;;;;;;37.23;19.77;;;;;;;2.59;77.42;98610.38;6093116;23;20200;-84
2022/12/10 09:22:36;;;;;;;37.00;18.03;;;;;;;2.60;77.60;98611.22;6091103;23;20217;-86
2022/12/10 09:25:04;;;;;;;38.00;19.17;;;;;;;2.61;77.71;98605.09;6091829;23;20188;-83
2022/12/10 09:27:30;;;;;;;40.58;20.48;;;;;;;2.63;77.64;98616.25;6094749;23;20507;-83
2022/12/10 09:29:56;;;;;;;34.05;17.92;;;;;;;2.66;77.79;98614.34;6095623;23;20593;-83
2022/12/10 09:32:21;;;;;;;43.87;19.80;;;;;;;2.71;77.98;98623.66;6093535;23;20196;-83
2022/12/10 09:34:50;;;;;;;39.30;19.73;;;;;;;2.75;77.77;98620.00;6090500;23;20263;-82
2022/12/10 09:37:15;;;;;;;37.10;19.42;;;;;;;2.80;77.71;98621.47;6098676;23;20236;-85
2022/12/10 09:39:40;;;;;;;35.43;18.90;;;;;;;2.83;77.35;98618.72;6099903;23;20248;-83
2022/12/10 09:42:22;;;;;;;31.07;17.30;;;;;;;2.84;77.47;98620.41;6100111;23;20682;-82
2022/12/10 09:45:14;;;;;;;40.13;19.02;;;;;;;2.85;77.47;98619.50;6094590;23;20258;-83
2022/12/10 09:47:52;;;;;;;32.83;16.58;;;;;;;2.87;77.59;98611.66;6089483;23;20192;-86
2022/12/10 09:50:26;;;;;;;50.97;22.55;;;;;;;2.85;77.43;98616.91;6095119;23;20204;-87
2022/12/10 09:52:54;;;;;;;46.03;20.23;;;;;;;2.82;77.34;98617.06;6088319;23;20336;-83
2022/12/10 09:55:32;;;;;;;32.88;17.25;;;;;;;2.80;77.17;98611.09;6090454;23;20562;-83
2022/12/10 09:58:01;;;;;;;39.67;18.60;;;;;;;2.77;77.06;98613.00;6093800;23;20198;-84
2022/12/10 10:00:33;;;;;;;43.47;21.52;;;;;;;2.70;77.20;98612.47;6092481;23;20563;-85
2022/12/10 10:03:00;;;;;;;38.47;19.30;;;;;;;2.68;77.57;98611.69;6090931;23;20286;-84
2022/12/10 10:05:33;;;;;;;34.17;18.88;;;;;;;2.68;77.27;98611.69;6093304;23;20199;-83
2022/12/10 10:08:06;;;;;;;45.80;23.25;;;;;;;2.68;77.66;98619.47;6095137;23;20176;-83
2022/12/10 10:10:40;;;;;;;37.65;18.60;;;;;;;2.68;77.45;98619.47;6092605;23;20212;-86
2022/12/10 10:13:08;;;;;;;37.05;17.73;;;;;;;2.69;77.15;98615.13;6096939;23;20195;-84
2022/12/10 10:15:37;;;;;;;39.90;19.13;;;;;;;2.69;77.36;98621.13;6094685;23;20188;-83
2022/12/10 10:18:14;;;;;;;40.33;18.02;;;;;;;2.69;77.32;98620.31;6097611;23;20181;-86
2022/12/10 10:20:40;;;;;;;34.50;19.55;;;;;;;2.69;77.36;98623.72;6094882;23;20175;-84
2022/12/10 10:23:08;;;;;;;42.87;20.40;;;;;;;2.71;77.19;98629.69;6091464;23;20219;-86
2022/12/10 10:25:34;;;;;;;43.17;19.58;;;;;;;2.72;77.23;98626.19;6091408;23;20207;-82
2022/12/10 10:27:59;;;;;;;33.45;19.88;;;;;;;2.75;77.55;98635.56;6090231;23;20180;-83
2022/12/10 10:30:25;;;;;;;28.07;16.97;;;;;;;2.75;77.22;98631.22;6088045;23;20307;-83
2022/12/10 10:32:53;;;;;;;36.87;18.13;;;;;;;2.73;77.32;98627.00;6091579;23;20199;-82
2022/12/10 10:35:32;;;;;;;33.33;19.27;;;;;;;2.75;77.26;98632.97;6088069;23;20184;-83
2022/12/10 10:38:14;;;;;;;38.42;17.90;;;;;;;2.75;77.20;98635.56;6092054;23;20480;-83
2022/12/10 10:40:42;;;;;;;32.15;16.52;;;;;;;2.77;77.17;98636.34;6091692;23;20180;-83
2022/12/10 10:43:15;;;;;;;29.13;17.05;;;;;;;2.76;76.95;98642.44;6093473;23;20215;-86
2022/12/10 10:45:42;;;;;;;38.47;18.02;;;;;;;2.74;77.25;98633.91;6090604;23;20207;-84
2022/12/10 10:48:22;;;;;;;37.00;17.65;;;;;;;2.72;77.25;98630.53;6093507;23;20179;-84
2022/12/10 10:51:05;;;;;;;32.70;17.55;;;;;;;2.69;77.33;98634.09;6094033;23;20212;-85
2022/12/10 10:53:43;;;;;;;36.53;18.63;;;;;;;2.66;77.25;98635.09;6092235;23;20180;-86
2022/12/10 10:56:16;;;;;;;34.72;19.70;;;;;;;2.63;77.23;98643.00;6095963;23;20511;-85
2022/12/10 10:58:52;;;;;;;32.65;19.85;;;;;;;2.63;77.41;98642.19;6095707;23;20177;-86
2022/12/10 11:01:18;;;;;;;31.00;17.25;;;;;;;2.62;77.29;98656.06;6093638;23;20348;-83
2022/12/10 11:03:54;;;;;;;32.10;18.17;;;;;;;2.60;77.28;98644.91;6091468;23;20183;-84
2022/12/10 11:06:20;;;;;;;35.90;19.65;;;;;;;2.59;77.61;98645.81;6095108;23;20187;-86
2022/12/10 11:08:48;;;;;;;41.40;20.87;;;;;;;2.57;77.30;98648.50;6092297;23;20771;-84
2022/12/10 11:11:32;;;;;;;43.70;20.30;;;;;;;2.52;77.49;98649.63;6094363;23;20448;-83
2022/12/10 11:14:23;;;;;;;36.80;17.67;;;;;;;2.47;77.49;98652.41;6095763;23;20234;-84
2022/12/10 11:16:48;;;;;;;36.08;20.27;;;;;;;2.41;77.67;98648.34;6094355;23;20174;-84
2022/12/10 11:19:23;;;;;;;37.20;16.77;;;;;;;2.41;77.45;98655.28;6094599;23;20642;-84
2022/12/10 11:21:49;;;;;;;37.03;18.88;;;;;;;2.37;77.55;98651.97;6093985;23;20199;-85
2022/12/10 11:24:16;;;;;;;43.90;19.42;;;;;;;2.35;77.69;98648.66;6093328;23;20832;-84
2022/12/10 11:27:13;;;;;;;45.08;21.70;;;;;;;2.38;77.90;98647.66;6094211;23;20180;-83
2022/12/10 11:29:46;;;;;;;41.33;20.67;;;;;;;2.41;77.81;98642.34;6093387;23;20190;-84
2022/12/10 11:32:49;;;;;;;38.45;20.70;;;;;;;2.44;77.89;98642.19;6095950;23;20205;-88
2022/12/10 11:35:32;;;;;;;42.63;18.52;;;;;;;2.44;77.63;98650.81;6096357;23;20180;-85
2022/12/10 11:38:07;;;;;;;36.83;17.55;;;;;;;2.46;77.60;98644.69;6092474;23;20180;-84
2022/12/10 11:41:10;;;;;;;33.42;20.60;;;;;;;2.47;77.32;98642.03;6089747;23;20319;-84
2022/12/10 11:44:11;;;;;;;40.10;19.40;;;;;;;2.49;77.31;98652.34;6086414;23;20179;-83